Hlavní strana
METAR-TAF:

METAR-TAF

Letiště :

Tarawa, Kiribati

zeměpisná šířka: 01-21N, zeměpisná délka: 172-55E, výška: 2 m

Aktuální stav počasí

Zpráva byla vytvořena před 47 minutami, v 13:00 UTC
Jihovýchodní vítr 5 kt
Teplota 28°C
Vlhkost vzduchu 70%
Tlak 1009 hPa
Viditelnost 10 km a více
Skoro jasno ve výšce 2000 ft

METAR: NGTA 251300Z 14005KT 9999 FEW020 28/22 Q1009

Čas: 03:47 (13:47 UTC)

Předpověď počasí

Zpráva byla vytvořena před 2 hodinami a 18 minutami, v 11:29 UTC
Předpověď platná od 25 v 12 UTC do 26 v 12 UTC
Východojihovýchodní vítr 7 kt
Viditelnost 10 km a více
Skoro jasno ve výšce 2000 ft
Pravděpodobnost 30% :
Dočasný
od 26 v 03 UTC do 26 v 06 UTC
Viditelnost: 5000 m
Skoro jasno ve výšce 1800 ft, Cumulonimbus.
bouřka, déšť

TAF: NGTA 251129Z 2512/2612 12007KT 9999 FEW020 PROB30 TEMPO 2603/2606 5000 TSRA FEW018CB

Stav a předpovědi počasí z více než 4 000 letišť (zprávy METAR a TAF).

Červené a žluté tečky na mapě představují dostupné meteorologické stanice.

Když kurzor umístíte na tečku, zobrazí se název stanice.

Pak kliknutím zobrazíte stav a předpověď počasí.

Chcete-li změnit mapu, kliknutím na zelené tlačítko se znaménkem +mapu přiblížíte, kliknutím na zelené tlačítko se znaménkem – mapu oddálíte a kliknutím na zelené šipky přejdete na sousední mapy.


METAR-TAF: